createdAt,value
2023-07-15T00:02:18.933Z,95284.41
2023-07-15T00:05:25.331Z,95280.91
2023-07-15T00:08:29.118Z,95264.81
2023-07-15T00:11:35.836Z,95284.66
2023-07-15T00:14:40.658Z,95287.47
2023-07-15T00:17:44.316Z,95292.94
2023-07-15T00:20:48.135Z,95290.16
2023-07-15T00:23:54.514Z,95288.34
2023-07-15T00:27:00.090Z,95289.25
2023-07-15T00:30:05.364Z,95286.19
2023-07-15T00:33:14.725Z,95287.75
2023-07-15T00:36:18.670Z,95297.50
2023-07-15T00:39:21.910Z,95295.75
2023-07-15T00:43:03.654Z,95295.75
2023-07-15T00:46:50.255Z,95304.44
2023-07-15T00:49:53.669Z,95295.13
2023-07-15T00:52:56.864Z,95297.16
2023-07-15T00:56:00.123Z,95299.63
2023-07-15T00:59:04.342Z,95292.00
2023-07-15T01:02:10.417Z,95294.16
2023-07-15T01:05:13.966Z,95304.13
2023-07-15T01:08:17.115Z,95302.75
2023-07-15T01:11:21.179Z,95298.50
2023-07-15T01:14:24.512Z,95308.03
2023-07-15T01:17:29.630Z,95308.38
2023-07-15T01:20:33.632Z,95309.94
2023-07-15T01:23:38.445Z,95307.28
2023-07-15T01:26:41.559Z,95298.13
2023-07-15T01:29:45.513Z,95302.06
2023-07-15T01:32:48.902Z,95307.56
2023-07-15T01:35:52.255Z,95297.72
2023-07-15T01:38:57.198Z,95308.81
2023-07-15T01:42:00.217Z,95316.63
2023-07-15T01:45:04.829Z,95311.41
2023-07-15T01:48:08.900Z,95312.19
2023-07-15T01:51:12.210Z,95315.00
2023-07-15T01:54:16.702Z,95312.19
2023-07-15T01:57:19.732Z,95313.31
2023-07-15T02:00:22.826Z,95314.34
2023-07-15T02:03:26.032Z,95314.66
2023-07-15T02:06:29.306Z,95311.66
2023-07-15T02:09:35.516Z,95313.88
2023-07-15T02:12:38.975Z,95306.28
2023-07-15T02:15:42.079Z,95303.69
2023-07-15T02:18:45.306Z,95309.63
2023-07-15T02:21:48.397Z,95318.69
2023-07-15T02:24:53.022Z,95312.34
2023-07-15T02:27:56.200Z,95311.88
2023-07-15T02:30:59.431Z,95315.03
2023-07-15T02:34:02.602Z,95316.81
2023-07-15T02:37:05.884Z,95313.22
2023-07-15T02:40:11.767Z,95309.19
2023-07-15T02:43:14.987Z,95306.81
2023-07-15T02:46:18.291Z,95312.44
2023-07-15T02:49:21.639Z,95314.13
2023-07-15T02:52:25.645Z,95307.97
2023-07-15T02:55:31.311Z,95316.81
2023-07-15T02:58:35.265Z,95313.22
2023-07-15T03:01:39.029Z,95322.41
2023-07-15T03:04:42.231Z,95310.25
2023-07-15T03:07:46.357Z,95317.31
2023-07-15T03:10:51.525Z,95317.44
2023-07-15T03:13:55.637Z,95317.13
2023-07-15T03:16:58.755Z,95318.53
2023-07-15T03:20:01.905Z,95323.72
2023-07-15T03:23:05.439Z,95319.59
2023-07-15T03:26:10.075Z,95325.75
2023-07-15T03:29:13.284Z,95324.06
2023-07-15T03:32:16.934Z,95325.69
2023-07-15T03:35:19.956Z,95329.75
2023-07-15T03:38:23.105Z,95332.91
2023-07-15T03:41:27.870Z,95325.63
2023-07-15T03:44:30.870Z,95332.63
2023-07-15T03:47:35.171Z,95323.63
2023-07-15T03:50:38.304Z,95323.03
2023-07-15T03:53:41.690Z,95327.00
2023-07-15T03:56:46.189Z,95323.78
2023-07-15T03:59:49.261Z,95327.25
2023-07-15T04:02:55.437Z,95322.94
2023-07-15T04:05:58.589Z,95324.78
2023-07-15T04:09:01.698Z,95323.03
2023-07-15T04:12:09.475Z,95339.22
2023-07-15T04:15:12.884Z,95328.31
2023-07-15T04:18:17.995Z,95333.06
2023-07-15T04:21:21.013Z,95339.34
2023-07-15T04:24:24.032Z,95347.97
2023-07-15T04:27:28.485Z,95352.34
2023-07-15T04:30:31.632Z,95354.84
2023-07-15T04:33:34.990Z,95364.94
2023-07-15T04:36:38.175Z,95364.25
2023-07-15T04:39:41.389Z,95370.88
2023-07-15T04:42:46.829Z,95370.09
2023-07-15T04:45:50.139Z,95368.41
2023-07-15T04:48:53.667Z,95368.16
2023-07-15T04:51:56.803Z,95361.53
2023-07-15T04:55:00.205Z,95364.81
2023-07-15T04:58:05.055Z,95367.63
2023-07-15T05:01:08.656Z,95366.72
2023-07-15T05:04:11.813Z,95361.34
2023-07-15T05:07:15.075Z,95371.16
2023-07-15T05:10:18.126Z,95369.84
2023-07-15T05:13:23.099Z,95370.31
2023-07-15T05:16:26.385Z,95375.63
2023-07-15T05:19:29.591Z,95368.06
2023-07-15T05:22:32.713Z,95369.09
2023-07-15T05:25:36.927Z,95368.16
2023-07-15T05:28:41.597Z,95368.94
2023-07-15T05:31:47.072Z,95360.09
2023-07-15T05:34:50.742Z,95362.56
2023-07-15T05:37:53.838Z,95363.34
2023-07-15T05:40:58.226Z,95360.78
2023-07-15T05:44:03.135Z,95364.84
2023-07-15T05:47:06.675Z,95365.63
2023-07-15T05:50:10.998Z,95370.94
2023-07-15T05:53:14.108Z,95375.63
2023-07-15T05:56:17.680Z,95374.06
2023-07-15T05:59:23.281Z,95385.59
2023-07-15T06:02:27.888Z,95380.47
2023-07-15T06:05:31.986Z,95383.72
2023-07-15T06:08:35.141Z,95385.97
2023-07-15T06:11:38.152Z,95376.22
2023-07-15T06:14:42.674Z,95374.94
2023-07-15T06:17:46.173Z,95371.91
2023-07-15T06:20:50.122Z,95360.81
2023-07-15T06:23:53.183Z,95364.97
2023-07-15T06:26:56.409Z,95358.22
2023-07-15T06:30:01.722Z,95356.22
2023-07-15T06:33:04.944Z,95352.16
2023-07-15T06:36:09.074Z,95353.31
2023-07-15T06:39:12.189Z,95358.22
2023-07-15T06:42:15.479Z,95355.22
2023-07-15T06:45:21.717Z,95353.72
2023-07-15T06:48:25.198Z,95359.47
2023-07-15T06:51:28.271Z,95358.00
2023-07-15T06:54:33.871Z,95355.41
2023-07-15T06:57:36.939Z,95354.19
2023-07-15T07:00:42.486Z,95357.31
2023-07-15T07:03:46.462Z,95358.44
2023-07-15T07:06:49.584Z,95352.19
2023-07-15T07:09:52.613Z,95358.78
2023-07-15T07:12:55.660Z,95359.78
2023-07-15T07:16:00.672Z,95369.91
2023-07-15T07:19:03.995Z,95365.84
2023-07-15T07:22:07.296Z,95362.22
2023-07-15T07:25:11.369Z,95355.97
2023-07-15T07:28:14.481Z,95356.88
2023-07-15T07:31:20.000Z,95356.53
2023-07-15T07:34:23.411Z,95347.97
2023-07-15T07:37:26.935Z,95343.56
2023-07-15T07:40:30.242Z,95340.66
2023-07-15T07:43:33.633Z,95338.72
2023-07-15T07:46:38.433Z,95339.84
2023-07-15T07:49:41.619Z,95346.06
2023-07-15T07:52:44.756Z,95334.69
2023-07-15T07:55:47.771Z,95339.28
2023-07-15T07:58:55.981Z,95335.34
2023-07-15T08:02:00.452Z,95333.13
2023-07-15T08:05:03.798Z,95332.22
2023-07-15T08:08:06.956Z,95337.91
2023-07-15T08:11:10.009Z,95334.31
2023-07-15T08:14:13.108Z,95339.81
2023-07-15T08:17:17.985Z,95335.28
2023-07-15T08:20:21.065Z,95326.97
2023-07-15T08:23:24.108Z,95335.81
2023-07-15T08:26:27.471Z,95336.88
2023-07-15T08:29:30.535Z,95335.31
2023-07-15T08:32:34.978Z,95336.59
2023-07-15T08:35:38.223Z,95334.41
2023-07-15T08:38:41.443Z,95339.06
2023-07-15T08:41:45.019Z,95340.97
2023-07-15T08:44:48.659Z,95335.28
2023-07-15T08:47:53.508Z,95324.09
2023-07-15T08:50:59.380Z,95329.78
2023-07-15T08:54:03.681Z,95326.94
2023-07-15T08:57:08.941Z,95325.69
2023-07-15T09:00:13.405Z,95324.44
2023-07-15T09:03:18.065Z,95315.63
2023-07-15T09:06:21.200Z,95324.75
2023-07-15T09:09:33.318Z,95332.28
2023-07-15T09:12:36.369Z,95317.94
2023-07-15T09:15:39.453Z,95320.50
2023-07-15T09:18:45.479Z,95312.78
2023-07-15T09:21:54.158Z,95321.94
2023-07-15T09:25:04.821Z,95320.19
2023-07-15T09:28:10.730Z,95312.28
2023-07-15T09:31:23.953Z,95313.06
2023-07-15T09:34:28.841Z,95317.78
2023-07-15T09:37:33.241Z,95318.34
2023-07-15T09:40:43.229Z,95308.69
2023-07-15T09:43:48.140Z,95299.78
2023-07-15T09:46:51.527Z,95299.28
2023-07-15T09:49:56.165Z,95295.19
2023-07-15T09:53:01.376Z,95292.47
2023-07-15T09:56:07.791Z,95296.59
2023-07-15T09:59:17.691Z,95292.97
2023-07-15T10:02:34.624Z,95289.34
2023-07-15T10:05:39.807Z,95279.41
2023-07-15T10:08:43.781Z,95276.25
2023-07-15T10:11:47.264Z,95278.72
2023-07-15T10:14:51.040Z,95272.75
2023-07-15T10:17:54.294Z,95280.28
2023-07-15T10:21:00.180Z,95282.59
2023-07-15T10:24:11.517Z,95281.50
2023-07-15T10:27:16.191Z,95278.81
2023-07-15T10:30:24.934Z,95282.59
2023-07-15T10:33:28.248Z,95274.63
2023-07-15T10:36:40.376Z,95273.28
2023-07-15T10:39:44.214Z,95276.22
2023-07-15T10:42:47.345Z,95279.50
2023-07-15T10:45:54.020Z,95277.41
2023-07-15T10:48:57.166Z,95269.72
2023-07-15T10:52:02.099Z,95268.38
2023-07-15T10:55:05.090Z,95261.84
2023-07-15T10:58:09.542Z,95265.25
2023-07-15T11:01:14.153Z,95261.47
2023-07-15T11:04:21.274Z,95265.41
2023-07-15T11:07:26.727Z,95258.31
2023-07-15T11:10:35.169Z,95263.22
2023-07-15T11:13:39.223Z,95260.22
2023-07-15T11:16:42.377Z,95255.81
2023-07-15T11:19:45.482Z,95256.13
2023-07-15T11:22:49.989Z,95251.88
2023-07-15T11:25:53.109Z,95249.84
2023-07-15T11:28:58.932Z,95241.97
2023-07-15T11:32:03.550Z,95237.91
2023-07-15T11:35:14.192Z,95230.00
2023-07-15T11:38:30.757Z,95236.31
2023-07-15T11:41:35.426Z,95226.84
2023-07-15T11:44:38.764Z,95227.19
2023-07-15T11:47:44.117Z,95227.50
2023-07-15T11:50:47.453Z,95230.16
2023-07-15T11:53:54.688Z,95229.84
2023-07-15T11:56:59.911Z,95233.16
2023-07-15T12:00:03.850Z,95231.28
2023-07-15T12:03:10.072Z,95226.53
2023-07-15T12:06:17.818Z,95227.50
2023-07-15T12:09:23.935Z,95226.72
2023-07-15T12:12:26.993Z,95222.63
2023-07-15T12:15:30.132Z,95219.78
2023-07-15T12:18:33.176Z,95222.59
2023-07-15T12:21:36.374Z,95213.44
2023-07-15T12:24:42.943Z,95206.69
2023-07-15T12:27:48.384Z,95215.19
2023-07-15T12:30:51.525Z,95212.09
2023-07-15T12:33:54.668Z,95205.69
2023-07-15T12:36:59.479Z,95205.69
2023-07-15T12:40:04.530Z,95210.66
2023-07-15T12:43:07.623Z,95198.03
2023-07-15T12:46:11.163Z,95193.75
2023-07-15T12:49:14.285Z,95189.56
2023-07-15T12:52:17.466Z,95186.41
2023-07-15T12:55:21.908Z,95176.63
2023-07-15T12:58:25.694Z,95189.81
2023-07-15T13:01:28.971Z,95182.75
2023-07-15T13:04:32.352Z,95179.50
2023-07-15T13:07:35.551Z,95172.41
2023-07-15T13:10:40.097Z,95175.25
2023-07-15T13:13:43.165Z,95171.75
2023-07-15T13:16:46.335Z,95173.50
2023-07-15T13:19:49.411Z,95173.97
2023-07-15T13:22:52.557Z,95175.84
2023-07-15T13:25:56.996Z,95171.97
2023-07-15T13:29:00.128Z,95178.38
2023-07-15T13:32:03.464Z,95182.13
2023-07-15T13:35:07.186Z,95179.34
2023-07-15T13:38:10.211Z,95188.44
2023-07-15T13:41:14.778Z,95178.50
2023-07-15T13:44:18.050Z,95177.44
2023-07-15T13:47:21.252Z,95180.09
2023-07-15T13:50:24.467Z,95177.16
2023-07-15T13:53:27.596Z,95180.31
2023-07-15T13:56:32.251Z,95182.22
2023-07-15T13:59:35.353Z,95180.75
2023-07-15T14:02:38.487Z,95179.78
2023-07-15T14:05:41.688Z,95181.47
2023-07-15T14:08:44.782Z,95175.97
2023-07-15T14:11:49.367Z,95181.03
2023-07-15T14:14:52.526Z,95175.53
2023-07-15T14:17:57.440Z,95177.09
2023-07-15T14:21:00.605Z,95177.16
2023-07-15T14:24:05.295Z,95167.22
2023-07-15T14:27:11.792Z,95166.25
2023-07-15T14:30:15.073Z,95166.25
2023-07-15T14:33:18.201Z,95169.28
2023-07-15T14:36:21.286Z,95172.72
2023-07-15T14:39:24.502Z,95165.31
2023-07-15T14:42:29.214Z,95165.78
2023-07-15T14:45:32.645Z,95158.88
2023-07-15T14:48:36.347Z,95167.69
2023-07-15T14:51:39.514Z,95162.66
2023-07-15T14:54:42.624Z,95161.88
2023-07-15T14:57:47.400Z,95160.44
2023-07-15T15:00:50.589Z,95163.28
2023-07-15T15:03:53.776Z,95167.84
2023-07-15T15:06:56.934Z,95166.91
2023-07-15T15:09:59.990Z,95169.75
2023-07-15T15:13:04.537Z,95172.75
2023-07-15T15:16:11.510Z,95167.56
2023-07-15T15:19:14.630Z,95165.97
2023-07-15T15:22:17.855Z,95154.81
2023-07-15T15:25:20.925Z,95168.19
2023-07-15T15:28:25.484Z,95172.25
2023-07-15T15:31:28.731Z,95170.19
2023-07-15T15:34:31.951Z,95170.81
2023-07-15T15:37:35.541Z,95170.34
2023-07-15T15:40:38.744Z,95177.00
2023-07-15T15:43:43.345Z,95178.56
2023-07-15T15:46:46.457Z,95172.72
2023-07-15T15:49:49.595Z,95176.34
2023-07-15T15:52:52.702Z,95173.34
2023-07-15T15:55:55.889Z,95179.03
2023-07-15T15:59:00.455Z,95175.38
2023-07-15T16:02:03.805Z,95175.84
2023-07-15T16:05:07.933Z,95178.25
2023-07-15T16:08:10.987Z,95175.59
2023-07-15T16:11:14.556Z,95170.69
2023-07-15T16:14:19.413Z,95181.09
2023-07-15T16:17:22.630Z,95180.13
2023-07-15T16:20:25.899Z,95193.69
2023-07-15T16:23:28.917Z,95191.63
2023-07-15T16:26:32.011Z,95190.66
2023-07-15T16:29:36.607Z,95193.69
2023-07-15T16:32:39.639Z,95191.44
2023-07-15T16:35:42.814Z,95190.19
2023-07-15T16:38:45.850Z,95192.22
2023-07-15T16:41:49.160Z,95189.25
2023-07-15T16:44:53.596Z,95194.75
2023-07-15T16:47:56.905Z,95195.06
2023-07-15T16:51:00.018Z,95193.19
2023-07-15T16:54:03.121Z,95204.69
2023-07-15T16:57:06.759Z,95201.81
2023-07-15T17:00:12.743Z,95194.94
2023-07-15T17:03:15.916Z,95201.06
2023-07-15T17:06:19.125Z,95202.78
2023-07-15T17:09:32.404Z,95206.09
2023-07-15T17:12:35.793Z,95212.38
2023-07-15T17:15:40.289Z,95216.47
2023-07-15T17:18:43.350Z,95219.63
2023-07-15T17:21:46.571Z,95221.19
2023-07-15T17:24:52.716Z,95220.44
2023-07-15T17:27:55.959Z,95227.00
2023-07-15T17:31:00.414Z,95235.22
2023-07-15T17:34:03.682Z,95231.34
2023-07-15T17:37:07.577Z,95232.63
2023-07-15T17:40:11.362Z,95232.06
2023-07-15T17:43:14.403Z,95237.53
2023-07-15T17:46:18.977Z,95242.63
2023-07-15T17:49:22.102Z,95239.44
2023-07-15T17:52:25.482Z,95250.41
2023-07-15T17:55:28.536Z,95243.75
2023-07-15T17:58:31.699Z,95255.06
2023-07-15T18:01:36.194Z,95254.06
2023-07-15T18:04:40.128Z,95256.44
2023-07-15T18:07:43.199Z,95260.84
2023-07-15T18:10:46.305Z,95261.41
2023-07-15T18:13:49.397Z,95264.25
2023-07-15T18:16:55.168Z,95268.94
2023-07-15T18:19:58.198Z,95262.13
2023-07-15T18:23:01.405Z,95267.16
2023-07-15T18:26:04.541Z,95270.34
2023-07-15T18:29:07.592Z,95274.91
2023-07-15T18:32:12.820Z,95276.84
2023-07-15T18:35:16.021Z,95282.81
2023-07-15T18:38:19.220Z,95285.34
2023-07-15T18:41:22.283Z,95292.09
2023-07-15T18:44:25.474Z,95296.41
2023-07-15T18:47:29.979Z,95297.94
2023-07-15T18:50:33.098Z,95294.78
2023-07-15T18:53:36.167Z,95302.19
2023-07-15T18:56:39.257Z,95308.00
2023-07-15T18:59:42.488Z,95308.34
2023-07-15T19:02:47.110Z,95313.06
2023-07-15T19:05:51.587Z,95316.53
2023-07-15T19:08:54.698Z,95312.94
2023-07-15T19:11:57.808Z,95314.84
2023-07-15T19:15:00.907Z,95317.06
2023-07-15T19:18:05.495Z,95312.81
2023-07-15T19:21:08.684Z,95315.16
2023-07-15T19:27:37.302Z,95315.94
2023-07-15T19:30:40.593Z,95320.31
2023-07-15T19:33:46.932Z,95325.25
2023-07-15T19:36:50.209Z,95324.78
2023-07-15T19:39:53.239Z,95319.88
2023-07-15T19:42:56.346Z,95318.75
2023-07-15T19:45:59.492Z,95313.38
2023-07-15T19:49:04.312Z,95328.03
2023-07-15T19:52:07.903Z,95319.66
2023-07-15T19:55:10.951Z,95328.84
2023-07-15T19:58:14.086Z,95326.59
2023-07-15T20:01:17.136Z,95322.50
2023-07-15T20:04:21.741Z,95319.81
2023-07-15T20:07:24.912Z,95329.34
2023-07-15T20:10:28.152Z,95327.09
2023-07-15T20:13:31.265Z,95330.91
2023-07-15T20:16:36.065Z,95329.22
2023-07-15T20:19:40.967Z,95323.19
2023-07-15T20:22:44.242Z,95325.09
2023-07-15T20:25:47.623Z,95334.72
2023-07-15T20:28:50.818Z,95333.13
2023-07-15T20:31:53.967Z,95335.81
2023-07-15T20:34:58.788Z,95336.94
2023-07-15T20:38:01.866Z,95340.31
2023-07-15T20:41:06.036Z,95334.13
2023-07-15T20:44:09.365Z,95336.72
2023-07-15T20:47:12.449Z,95335.25
2023-07-15T20:50:18.183Z,95330.56
2023-07-15T20:53:21.412Z,95332.41
2023-07-15T20:56:24.571Z,95328.16
2023-07-15T20:59:27.649Z,95325.03
2023-07-15T21:02:30.771Z,95322.34
2023-07-15T21:05:35.441Z,95323.59
2023-07-15T21:08:38.639Z,95322.00
2023-07-15T21:11:42.080Z,95330.63
2023-07-15T21:14:45.157Z,95323.47
2023-07-15T21:17:48.269Z,95323.47
2023-07-15T21:20:54.255Z,95315.41
2023-07-15T21:23:57.865Z,95308.34
2023-07-15T21:27:00.945Z,95311.16
2023-07-15T21:30:05.175Z,95312.34
2023-07-15T21:33:08.194Z,95299.84
2023-07-15T21:36:12.846Z,95314.16
2023-07-15T21:39:16.545Z,95311.81
2023-07-15T21:42:19.647Z,95305.22
2023-07-15T21:45:22.727Z,95309.13
2023-07-15T21:48:25.807Z,95305.66
2023-07-15T21:51:30.273Z,95303.31
2023-07-15T21:54:33.275Z,95298.88
2023-07-15T21:57:36.481Z,95310.47
2023-07-15T22:00:40.012Z,95307.31
2023-07-15T22:03:43.206Z,95312.59
2023-07-15T22:06:47.769Z,95321.88
2023-07-15T22:09:50.789Z,95319.09
2023-07-15T22:12:53.846Z,95323.09
2023-07-15T22:15:57.171Z,95333.75
2023-07-15T22:19:00.242Z,95333.84
2023-07-15T22:22:05.007Z,95326.25
2023-07-15T22:25:09.151Z,95334.41
2023-07-15T22:28:12.249Z,95341.03
2023-07-15T22:31:15.364Z,95338.69
2023-07-15T22:34:18.517Z,95336.22
2023-07-15T22:37:23.058Z,95340.03
2023-07-15T22:40:26.109Z,95337.22
2023-07-15T22:43:29.231Z,95332.41
2023-07-15T22:46:32.345Z,95341.56
2023-07-15T22:49:35.429Z,95336.19
2023-07-15T22:52:40.824Z,95326.91
2023-07-15T22:55:43.922Z,95328.31
2023-07-15T22:58:47.076Z,95323.75
2023-07-15T23:01:50.450Z,95326.50
2023-07-15T23:04:53.653Z,95317.34
2023-07-15T23:07:58.092Z,95318.91
2023-07-15T23:11:01.280Z,95314.88
2023-07-15T23:14:04.460Z,95318.00
2023-07-15T23:17:08.055Z,95317.78
2023-07-15T23:20:11.551Z,95323.47
2023-07-15T23:23:17.932Z,95323.47
2023-07-15T23:26:21.516Z,95322.03
2023-07-15T23:29:24.612Z,95319.97
2023-07-15T23:32:29.816Z,95319.69
2023-07-15T23:35:33.492Z,95321.13
2023-07-15T23:38:38.810Z,95322.38
2023-07-15T23:41:41.974Z,95318.25
2023-07-15T23:44:45.082Z,95317.34
2023-07-15T23:47:48.236Z,95316.66
2023-07-15T23:50:51.421Z,95322.69
2023-07-15T23:53:55.909Z,95318.91
2023-07-15T23:56:59.007Z,95318.44
